createdAt,value
2018-07-23T00:02:12.148Z,12.77
2018-07-23T00:04:39.969Z,12.07
2018-07-23T00:07:07.805Z,12.60
2018-07-23T00:09:35.669Z,12.13
2018-07-23T00:12:03.566Z,11.33
2018-07-23T00:14:31.385Z,12.70
2018-07-23T00:16:59.230Z,12.67
2018-07-23T00:19:27.065Z,11.80
2018-07-23T00:21:54.940Z,12.40
2018-07-23T00:24:22.782Z,13.37
2018-07-23T00:26:50.639Z,12.03
2018-07-23T00:29:18.533Z,12.10
2018-07-23T00:31:46.418Z,10.47
2018-07-23T00:34:14.261Z,12.10
2018-07-23T00:36:42.091Z,10.70
2018-07-23T00:39:10.391Z,11.10
2018-07-23T00:41:38.345Z,11.70
2018-07-23T00:44:06.264Z,10.07
2018-07-23T00:46:34.114Z,10.50
2018-07-23T00:49:01.966Z,11.20
2018-07-23T00:51:29.861Z,9.93
2018-07-23T00:53:57.682Z,9.20
2018-07-23T00:56:25.512Z,8.90
2018-07-23T00:58:53.354Z,6.50
2018-07-23T01:01:21.173Z,7.97
2018-07-23T01:03:49.001Z,6.10
2018-07-23T01:06:16.825Z,5.50
2018-07-23T01:08:44.665Z,6.57
2018-07-23T01:11:12.477Z,6.90
2018-07-23T01:13:40.321Z,7.60
2018-07-23T01:16:08.137Z,7.83
2018-07-23T01:18:35.977Z,6.70
2018-07-23T01:21:03.846Z,7.20
2018-07-23T01:23:31.673Z,6.20
2018-07-23T01:25:59.517Z,6.77
2018-07-23T01:28:27.381Z,5.77
2018-07-23T01:30:55.267Z,6.57
2018-07-23T01:33:23.366Z,7.25
2018-07-23T01:35:51.221Z,6.77
2018-07-23T01:38:19.114Z,6.10
2018-07-23T01:40:46.942Z,4.07
2018-07-23T01:43:14.785Z,3.20
2018-07-23T01:45:42.689Z,4.47
2018-07-23T01:48:10.538Z,4.30
2018-07-23T01:50:38.388Z,4.97
2018-07-23T01:53:06.290Z,4.93
2018-07-23T01:55:34.188Z,4.60
2018-07-23T01:58:02.060Z,4.60
2018-07-23T02:00:29.982Z,4.77
2018-07-23T02:02:57.866Z,5.10
2018-07-23T02:05:25.722Z,4.67
2018-07-23T02:07:53.583Z,5.03
2018-07-23T02:10:21.433Z,5.33
2018-07-23T02:12:49.269Z,5.30
2018-07-23T02:15:17.134Z,5.60
2018-07-23T02:17:44.994Z,5.53
2018-07-23T02:20:12.835Z,6.00
2018-07-23T02:22:40.662Z,5.70
2018-07-23T02:25:08.473Z,6.67
2018-07-23T02:27:36.305Z,7.47
2018-07-23T02:30:04.290Z,7.90
2018-07-23T02:32:32.129Z,8.40
2018-07-23T02:35:00.225Z,6.77
2018-07-23T02:37:28.049Z,8.00
2018-07-23T02:39:55.901Z,7.90
2018-07-23T02:42:23.745Z,7.20
2018-07-23T02:44:51.570Z,8.53
2018-07-23T02:47:19.404Z,8.57
2018-07-23T02:49:47.252Z,8.87
2018-07-23T02:52:15.123Z,8.37
2018-07-23T02:54:42.969Z,7.70
2018-07-23T02:57:10.811Z,8.10
2018-07-23T02:59:38.648Z,10.47
2018-07-23T03:02:06.498Z,9.30
2018-07-23T03:04:34.308Z,8.83
2018-07-23T03:07:02.194Z,7.70
2018-07-23T03:09:30.105Z,8.17
2018-07-23T03:11:57.937Z,8.90
2018-07-23T03:14:25.756Z,7.73
2018-07-23T03:16:53.633Z,9.43
2018-07-23T03:19:21.485Z,8.67
2018-07-23T03:21:49.423Z,7.97
2018-07-23T03:24:17.225Z,6.80
2018-07-23T03:26:45.109Z,7.23
2018-07-23T03:29:13.041Z,7.37
2018-07-23T03:31:40.252Z,7.50
2018-07-23T03:34:08.105Z,7.43
2018-07-23T03:36:35.892Z,7.37
2018-07-23T03:39:05.699Z,7.20
2018-07-23T03:41:33.473Z,7.33
2018-07-23T03:44:01.265Z,7.93
2018-07-23T03:46:29.125Z,7.20
2018-07-23T03:48:56.907Z,7.03
2018-07-23T03:51:24.742Z,7.73
2018-07-23T03:53:53.010Z,6.67
2018-07-23T03:56:20.907Z,5.33
2018-07-23T03:58:48.806Z,5.67
2018-07-23T04:01:17.418Z,5.77
2018-07-23T04:03:45.237Z,5.47
2018-07-23T04:06:13.094Z,5.50
2018-07-23T04:08:40.945Z,5.60
2018-07-23T04:11:08.867Z,5.93
2018-07-23T04:13:36.700Z,5.80
2018-07-23T04:16:04.824Z,5.87
2018-07-23T04:18:32.639Z,5.67
2018-07-23T04:21:00.483Z,5.17
2018-07-23T04:23:28.321Z,6.00
2018-07-23T04:25:56.146Z,5.57
2018-07-23T04:28:24.059Z,6.17
2018-07-23T04:30:52.166Z,5.73
2018-07-23T04:33:19.992Z,4.60
2018-07-23T04:35:47.806Z,4.40
2018-07-23T04:38:15.653Z,4.00
2018-07-23T04:40:43.493Z,3.93
2018-07-23T04:43:11.306Z,4.53
2018-07-23T04:45:39.132Z,4.17
2018-07-23T04:48:06.949Z,4.80
2018-07-23T04:50:34.771Z,4.57
2018-07-23T04:53:02.642Z,4.50
2018-07-23T04:55:30.471Z,4.37
2018-07-23T04:57:58.293Z,3.60
2018-07-23T05:00:26.121Z,3.87
2018-07-23T05:02:53.956Z,4.13
2018-07-23T05:05:21.748Z,4.10
2018-07-23T05:07:49.558Z,4.37
2018-07-23T05:10:17.627Z,5.20
2018-07-23T05:12:45.406Z,5.50
2018-07-23T05:15:13.303Z,5.30
2018-07-23T05:17:41.116Z,5.30
2018-07-23T05:20:08.977Z,5.10
2018-07-23T05:22:37.381Z,5.57
2018-07-23T05:25:05.200Z,5.47
2018-07-23T05:27:33.014Z,4.93
2018-07-23T05:30:00.882Z,5.40
2018-07-23T05:32:28.720Z,5.07
2018-07-23T05:34:56.585Z,5.00
2018-07-23T05:37:24.474Z,4.90
2018-07-23T05:39:52.324Z,4.33
2018-07-23T05:42:20.222Z,5.13
2018-07-23T05:44:48.053Z,4.40
2018-07-23T05:47:15.877Z,4.73
2018-07-23T05:49:43.722Z,4.70
2018-07-23T05:52:11.553Z,4.70
2018-07-23T05:54:39.381Z,4.47
2018-07-23T05:57:07.544Z,4.93
2018-07-23T05:59:35.382Z,4.27
2018-07-23T06:02:03.269Z,5.70
2018-07-23T06:04:31.142Z,4.50
2018-07-23T06:06:59.074Z,5.27
2018-07-23T06:09:26.884Z,4.43
2018-07-23T06:11:54.714Z,4.70
2018-07-23T06:14:22.831Z,5.07
2018-07-23T06:16:50.693Z,4.87
2018-07-23T06:19:18.549Z,4.83
2018-07-23T06:21:46.423Z,5.10
2018-07-23T06:24:14.287Z,5.53
2018-07-23T06:26:42.106Z,5.50
2018-07-23T06:29:09.998Z,5.43
2018-07-23T06:31:37.826Z,5.90
2018-07-23T06:34:05.741Z,4.87
2018-07-23T06:36:33.790Z,5.40
2018-07-23T06:39:01.648Z,5.50
2018-07-23T06:41:29.614Z,6.70
2018-07-23T06:43:57.533Z,5.80
2018-07-23T06:46:25.374Z,5.17
2018-07-23T06:48:53.251Z,5.30
2018-07-23T06:51:21.077Z,6.13
2018-07-23T06:53:48.895Z,5.43
2018-07-23T06:56:16.767Z,5.33
2018-07-23T06:58:44.621Z,5.83
2018-07-23T07:01:12.508Z,6.23
2018-07-23T07:03:40.370Z,5.73
2018-07-23T07:06:08.238Z,5.17
2018-07-23T07:08:36.169Z,5.87
2018-07-23T07:11:04.147Z,6.40
2018-07-23T07:13:32.064Z,6.70
2018-07-23T07:15:59.957Z,6.10
2018-07-23T07:18:28.152Z,5.77
2018-07-23T07:20:55.977Z,5.90
2018-07-23T07:23:23.819Z,5.70
2018-07-23T07:25:51.703Z,5.73
2018-07-23T07:28:19.531Z,5.50
2018-07-23T07:30:47.389Z,6.40
2018-07-23T07:33:15.261Z,6.03
2018-07-23T07:35:43.122Z,6.33
2018-07-23T07:38:11.065Z,5.70
2018-07-23T07:40:39.529Z,5.63
2018-07-23T07:43:07.436Z,5.23
2018-07-23T07:45:35.306Z,6.10
2018-07-23T07:48:03.213Z,6.53
2018-07-23T07:50:31.202Z,6.20
2018-07-23T07:52:59.081Z,5.47
2018-07-23T07:55:26.929Z,5.30
2018-07-23T07:57:54.992Z,6.43
2018-07-23T08:00:22.882Z,5.97
2018-07-23T08:02:50.758Z,6.03
2018-07-23T08:05:18.794Z,5.27
2018-07-23T08:07:46.982Z,6.23
2018-07-23T08:10:14.955Z,5.80
2018-07-23T08:12:42.886Z,5.40
2018-07-23T08:15:10.769Z,6.10
2018-07-23T08:17:38.663Z,5.70
2018-07-23T08:20:06.611Z,6.27
2018-07-23T08:22:34.631Z,5.77
2018-07-23T08:25:02.477Z,5.90
2018-07-23T08:27:30.350Z,5.47
2018-07-23T08:29:58.178Z,5.27
2018-07-23T08:32:26.152Z,5.37
2018-07-23T08:34:53.986Z,5.20
2018-07-23T08:37:21.859Z,5.53
2018-07-23T08:39:49.799Z,5.37
2018-07-23T08:42:17.691Z,5.63
2018-07-23T08:44:45.562Z,4.93
2018-07-23T08:47:13.420Z,4.97
2018-07-23T08:49:41.751Z,5.93
2018-07-23T08:52:09.632Z,5.67
2018-07-23T08:54:37.466Z,5.53
2018-07-23T08:57:05.380Z,5.90
2018-07-23T08:59:33.276Z,5.47
2018-07-23T09:02:01.108Z,5.43
2018-07-23T09:04:28.997Z,5.90
2018-07-23T09:06:56.886Z,5.57
2018-07-23T09:09:24.718Z,5.80
2018-07-23T09:11:52.541Z,5.40
2018-07-23T09:14:21.157Z,6.57
2018-07-23T09:16:49.060Z,5.70
2018-07-23T09:19:16.921Z,5.50
2018-07-23T09:21:44.805Z,5.83
2018-07-23T09:24:12.667Z,6.00
2018-07-23T09:26:40.511Z,6.33
2018-07-23T09:29:08.388Z,5.83
2018-07-23T09:31:36.242Z,5.93
2018-07-23T09:34:09.629Z,6.33
2018-07-23T09:36:37.737Z,6.13
2018-07-23T09:39:08.062Z,6.13
2018-07-23T09:41:35.964Z,6.20
2018-07-23T09:44:03.871Z,6.97
2018-07-23T09:46:31.726Z,6.90
2018-07-23T09:48:59.567Z,7.70
2018-07-23T09:51:27.418Z,7.00
2018-07-23T09:53:55.317Z,9.00
2018-07-23T09:56:23.179Z,8.73
2018-07-23T09:58:51.092Z,8.80
2018-07-23T10:01:19.467Z,8.00
2018-07-23T10:03:47.679Z,9.03
2018-07-23T10:06:15.577Z,9.20
2018-07-23T10:08:43.489Z,8.83
2018-07-23T10:11:11.346Z,9.33
2018-07-23T10:13:39.192Z,8.63
2018-07-23T10:16:07.098Z,8.83
2018-07-23T10:18:34.932Z,9.50
2018-07-23T10:21:02.841Z,9.43
2018-07-23T10:23:30.734Z,9.70
2018-07-23T10:25:58.593Z,9.67
2018-07-23T10:28:26.573Z,9.63
2018-07-23T10:30:54.478Z,10.13
2018-07-23T10:33:22.322Z,9.50
2018-07-23T10:35:50.196Z,9.37
2018-07-23T10:38:18.070Z,9.07
2018-07-23T10:40:45.910Z,9.03
2018-07-23T10:43:13.738Z,8.90
2018-07-23T10:45:41.605Z,8.10
2018-07-23T10:48:09.465Z,7.70
2018-07-23T10:50:37.313Z,7.33
2018-07-23T10:53:05.169Z,8.17
2018-07-23T10:55:33.005Z,7.87
2018-07-23T10:58:00.835Z,7.97
2018-07-23T11:00:28.715Z,7.17
2018-07-23T11:02:56.605Z,7.67
2018-07-23T11:05:24.459Z,7.73
2018-07-23T11:07:52.310Z,7.73
2018-07-23T11:10:21.018Z,7.73
2018-07-23T11:12:48.926Z,8.77
2018-07-23T11:15:16.761Z,8.27
2018-07-23T11:17:44.609Z,8.20
2018-07-23T11:20:12.726Z,9.20
2018-07-23T11:22:41.060Z,9.43
2018-07-23T11:25:38.595Z,9.63
2018-07-23T11:27:36.805Z,10.10
2018-07-23T11:30:05.317Z,9.60
2018-07-23T11:32:33.606Z,9.80
2018-07-23T11:35:01.565Z,9.57
2018-07-23T11:37:29.513Z,10.50
2018-07-23T11:39:57.368Z,11.00
2018-07-23T11:42:25.173Z,9.93
2018-07-23T11:44:53.026Z,10.80
2018-07-23T11:47:20.840Z,11.43
2018-07-23T11:49:48.697Z,10.57
2018-07-23T11:52:16.562Z,10.93
2018-07-23T11:54:44.369Z,11.70
2018-07-23T11:57:12.553Z,10.90
2018-07-23T11:59:40.381Z,11.26
2018-07-23T12:02:08.555Z,11.33
2018-07-23T12:04:36.530Z,11.93
2018-07-23T12:07:04.926Z,12.43
2018-07-23T12:09:32.774Z,12.77
2018-07-23T12:12:00.626Z,13.10
2018-07-23T12:14:28.482Z,14.80
2018-07-23T12:16:56.720Z,16.67
2018-07-23T12:19:24.561Z,19.27
2018-07-23T12:21:52.365Z,19.70
2018-07-23T12:24:20.213Z,24.53
2018-07-23T12:26:48.050Z,27.00
2018-07-23T12:29:15.885Z,24.73
2018-07-23T12:31:43.735Z,25.93
2018-07-23T12:34:11.555Z,25.00
2018-07-23T12:36:39.381Z,29.20
2018-07-23T12:39:09.557Z,29.70
2018-07-23T12:41:37.431Z,25.20
2018-07-23T12:44:05.270Z,24.73
2018-07-23T12:46:33.262Z,27.67
2018-07-23T12:49:01.089Z,26.50
2018-07-23T12:51:28.952Z,24.93
2018-07-23T12:53:56.805Z,21.73
2018-07-23T12:56:24.715Z,20.80
2018-07-23T12:58:52.569Z,21.33
2018-07-23T13:01:20.405Z,20.77
2018-07-23T13:03:48.253Z,17.73
2018-07-23T13:06:16.089Z,19.70
2018-07-23T13:08:43.969Z,19.47
2018-07-23T13:11:11.869Z,17.53
2018-07-23T13:13:39.709Z,17.27
2018-07-23T13:16:07.600Z,16.90
2018-07-23T13:18:35.828Z,18.40
2018-07-23T13:21:03.768Z,17.33
2018-07-23T13:23:31.645Z,17.13
2018-07-23T13:25:59.498Z,17.67
2018-07-23T13:28:27.375Z,17.10
2018-07-23T13:30:55.238Z,15.83
2018-07-23T13:33:23.049Z,15.33
2018-07-23T13:35:50.877Z,14.57
2018-07-23T13:38:18.802Z,15.77
2018-07-23T13:40:46.659Z,15.30
2018-07-23T13:43:14.521Z,15.23
2018-07-23T13:45:42.373Z,15.03
2018-07-23T13:48:10.272Z,14.23
2018-07-23T13:50:38.153Z,15.40
2018-07-23T13:53:06.150Z,15.30
2018-07-23T13:55:34.375Z,15.50
2018-07-23T13:58:02.262Z,15.50
2018-07-23T14:00:30.584Z,15.23
2018-07-23T14:02:58.470Z,14.93
2018-07-23T14:05:26.390Z,14.47
2018-07-23T14:07:54.256Z,14.03
2018-07-23T14:10:22.135Z,14.63
2018-07-23T14:12:49.998Z,14.37
2018-07-23T14:15:17.896Z,14.67
2018-07-23T14:17:45.754Z,14.60
2018-07-23T14:20:13.629Z,14.20
2018-07-23T14:22:41.502Z,15.07
2018-07-23T14:25:09.358Z,13.93
2018-07-23T14:27:37.227Z,14.52
2018-07-23T14:30:05.230Z,13.70
2018-07-23T14:32:33.167Z,14.47
2018-07-23T14:35:01.054Z,13.50
2018-07-23T14:37:28.920Z,14.70
2018-07-23T14:39:56.840Z,15.77
2018-07-23T14:42:24.761Z,15.87
2018-07-23T14:44:52.658Z,15.93
2018-07-23T14:47:20.573Z,16.23
2018-07-23T14:49:48.557Z,15.97
2018-07-23T14:52:16.472Z,16.67
2018-07-23T14:54:44.357Z,16.47
2018-07-23T14:57:12.249Z,15.00
2018-07-23T14:59:40.174Z,14.80
2018-07-23T15:02:08.071Z,15.37
2018-07-23T15:04:35.950Z,15.70
2018-07-23T15:07:03.986Z,14.27
2018-07-23T15:09:31.869Z,15.20
2018-07-23T15:11:59.833Z,14.67
2018-07-23T15:14:27.697Z,14.40
2018-07-23T15:16:55.583Z,14.83
2018-07-23T15:19:23.457Z,14.83
2018-07-23T15:21:51.354Z,15.17
2018-07-23T15:24:19.441Z,14.27
2018-07-23T15:26:47.662Z,14.43
2018-07-23T15:29:16.539Z,14.27
2018-07-23T15:31:44.454Z,13.20
2018-07-23T15:34:12.351Z,12.50
2018-07-23T15:36:40.627Z,11.67
2018-07-23T15:39:10.069Z,10.97
2018-07-23T15:41:38.316Z,10.33
2018-07-23T15:44:06.338Z,10.77
2018-07-23T15:46:34.217Z,10.47
2018-07-23T15:49:02.105Z,10.90
2018-07-23T15:51:29.968Z,10.57
2018-07-23T15:53:58.305Z,10.90
2018-07-23T15:56:26.301Z,10.83
2018-07-23T15:58:54.610Z,10.60
2018-07-23T16:01:22.591Z,10.73
2018-07-23T16:03:50.485Z,11.20
2018-07-23T16:06:18.428Z,11.10
2018-07-23T16:08:46.342Z,10.23
2018-07-23T16:11:14.683Z,10.57
2018-07-23T16:13:42.549Z,11.20
2018-07-23T16:16:10.405Z,11.97
2018-07-23T16:18:38.281Z,11.10
2018-07-23T16:21:06.243Z,11.17
2018-07-23T16:23:34.160Z,10.97
2018-07-23T16:26:02.042Z,11.47
2018-07-23T16:28:29.918Z,12.60
2018-07-23T16:30:57.833Z,12.00
2018-07-23T16:33:25.827Z,11.47
2018-07-23T16:35:53.698Z,12.47
2018-07-23T16:38:21.619Z,12.30
2018-07-23T16:40:49.874Z,12.53
2018-07-23T16:43:17.764Z,12.30
2018-07-23T16:45:45.698Z,13.00
2018-07-23T16:48:13.594Z,12.47
2018-07-23T16:50:41.509Z,13.27
2018-07-23T16:53:09.645Z,13.40
2018-07-23T16:55:37.525Z,13.73
2018-07-23T16:58:05.448Z,13.90
2018-07-23T17:00:33.614Z,14.60
2018-07-23T17:03:01.453Z,16.67
2018-07-23T17:05:29.342Z,14.60
2018-07-23T17:07:57.199Z,17.33
2018-07-23T17:10:25.201Z,19.37
2018-07-23T17:12:53.048Z,22.33
2018-07-23T17:15:20.879Z,24.80
2018-07-23T17:17:48.823Z,26.80
2018-07-23T17:20:16.681Z,22.00
2018-07-23T17:22:44.529Z,21.47
2018-07-23T17:25:12.367Z,22.80
2018-07-23T17:27:40.286Z,26.10
2018-07-23T17:30:08.205Z,29.60
2018-07-23T17:32:36.027Z,153.00
2018-07-23T17:35:03.941Z,146.47
2018-07-23T17:37:31.817Z,130.00
2018-07-23T17:39:59.654Z,235.23
2018-07-23T17:42:27.532Z,159.33
2018-07-23T17:44:55.417Z,37.60
2018-07-23T17:47:23.282Z,26.97
2018-07-23T17:49:51.156Z,24.53
2018-07-23T17:52:18.994Z,24.47
2018-07-23T17:54:46.875Z,29.17
2018-07-23T17:57:14.755Z,30.63
2018-07-23T17:59:42.607Z,26.67
2018-07-23T18:02:10.484Z,28.00
2018-07-23T18:04:38.318Z,24.73
2018-07-23T18:07:06.222Z,26.12
2018-07-23T18:09:34.154Z,24.10
2018-07-23T18:12:01.997Z,23.10
2018-07-23T18:14:29.863Z,24.10
2018-07-23T18:16:57.698Z,22.77
2018-07-23T18:19:25.587Z,25.77
2018-07-23T18:21:53.445Z,23.57
2018-07-23T18:24:21.292Z,22.47
2018-07-23T18:26:49.193Z,22.07
2018-07-23T18:29:17.100Z,21.57
2018-07-23T18:31:44.980Z,22.87
2018-07-23T18:34:12.849Z,24.70
2018-07-23T18:36:40.761Z,25.03
2018-07-23T18:39:10.481Z,22.07
2018-07-23T18:41:38.541Z,22.03
2018-07-23T18:44:06.679Z,23.90
2018-07-23T18:46:34.569Z,24.33
2018-07-23T18:49:23.847Z,24.80
2018-07-23T18:51:52.749Z,25.27
2018-07-23T18:54:22.638Z,24.23
2018-07-23T18:56:53.224Z,25.50
2018-07-23T18:59:21.324Z,24.00
2018-07-23T19:01:50.201Z,24.87
2018-07-23T19:04:18.255Z,24.07
2018-07-23T19:06:46.237Z,25.53
2018-07-23T19:09:16.449Z,22.63
2018-07-23T19:11:45.385Z,21.00
2018-07-23T19:14:14.056Z,22.70
2018-07-23T19:16:42.345Z,23.00
2018-07-23T19:19:10.395Z,19.97
2018-07-23T19:21:38.343Z,20.43
2018-07-23T19:24:06.297Z,18.00
2018-07-23T19:26:34.238Z,16.53
2018-07-23T19:29:02.190Z,15.80
2018-07-23T19:31:30.333Z,13.27
2018-07-23T19:33:59.324Z,13.33
2018-07-23T19:36:27.412Z,12.27
2018-07-23T19:38:55.897Z,11.70
2018-07-23T19:41:24.310Z,11.77
2018-07-23T19:43:52.566Z,9.33
2018-07-23T19:46:20.576Z,9.67
2018-07-23T19:48:48.461Z,11.37
2018-07-23T19:51:16.389Z,13.70
2018-07-23T19:53:44.301Z,13.40
2018-07-23T19:56:12.270Z,12.20
2018-07-23T19:58:40.941Z,9.33
2018-07-23T20:01:08.951Z,8.40
2018-07-23T20:03:36.836Z,9.47
2018-07-23T20:06:04.784Z,13.47
2018-07-23T20:08:32.696Z,13.87
2018-07-23T20:11:00.644Z,13.00
2018-07-23T20:13:28.565Z,14.20
2018-07-23T20:15:56.957Z,12.77
2018-07-23T20:18:24.908Z,14.03
2018-07-23T20:20:52.993Z,14.33
2018-07-23T20:23:20.972Z,15.77
2018-07-23T20:25:48.905Z,16.90
2018-07-23T20:28:16.832Z,17.40
2018-07-23T20:30:44.723Z,18.63
2018-07-23T20:33:12.621Z,16.83
2018-07-23T20:35:40.560Z,19.27
2018-07-23T20:38:08.575Z,19.40
2018-07-23T20:40:36.550Z,19.13
2018-07-23T20:43:04.530Z,19.30
2018-07-23T20:45:32.465Z,18.40
2018-07-23T20:48:00.338Z,18.13
2018-07-23T20:50:28.527Z,17.60
2018-07-23T20:52:56.441Z,18.53
2018-07-23T20:55:24.313Z,17.43
2018-07-23T20:57:52.168Z,18.77
2018-07-23T21:00:20.101Z,19.23
2018-07-23T21:02:48.002Z,19.23
2018-07-23T21:05:15.887Z,19.20
2018-07-23T21:07:43.751Z,18.73
2018-07-23T21:10:11.688Z,18.93
2018-07-23T21:12:39.568Z,19.27
2018-07-23T21:15:08.167Z,17.93
2018-07-23T21:17:36.008Z,18.30
2018-07-23T21:20:05.479Z,17.70
2018-07-23T21:22:33.376Z,18.73
2018-07-23T21:25:01.528Z,18.60
2018-07-23T21:27:29.385Z,18.70
2018-07-23T21:29:57.283Z,18.57
2018-07-23T21:32:25.156Z,18.20
2018-07-23T21:34:52.983Z,16.00
2018-07-23T21:37:20.848Z,16.80
2018-07-23T21:39:48.740Z,17.27
2018-07-23T21:42:16.628Z,16.40
2018-07-23T21:44:44.531Z,16.53
2018-07-23T21:47:12.370Z,17.17
2018-07-23T21:49:40.226Z,16.03
2018-07-23T21:52:08.088Z,17.10
2018-07-23T21:54:35.951Z,17.87
2018-07-23T21:57:03.820Z,17.40
2018-07-23T21:59:31.653Z,16.10
2018-07-23T22:01:59.584Z,16.17
2018-07-23T22:04:27.431Z,14.83
2018-07-23T22:06:55.291Z,15.30
2018-07-23T22:09:23.157Z,14.97
2018-07-23T22:11:50.972Z,15.00
2018-07-23T22:14:18.909Z,15.57
2018-07-23T22:16:46.779Z,16.17
2018-07-23T22:19:14.594Z,15.27
2018-07-23T22:21:42.434Z,16.03
2018-07-23T22:24:10.246Z,16.27
2018-07-23T22:26:38.161Z,17.77
2018-07-23T22:29:06.065Z,16.03
2018-07-23T22:31:33.942Z,16.40
2018-07-23T22:34:01.780Z,15.77
2018-07-23T22:36:29.645Z,15.53
2018-07-23T22:38:57.593Z,15.63
2018-07-23T22:41:25.424Z,15.67
2018-07-23T22:43:53.233Z,14.77
2018-07-23T22:46:21.141Z,15.10
2018-07-23T22:48:49.294Z,15.33
2018-07-23T22:51:17.153Z,15.93
2018-07-23T22:53:44.969Z,17.27
2018-07-23T22:56:12.809Z,17.27
2018-07-23T22:58:40.676Z,16.13
2018-07-23T23:01:08.604Z,15.30
2018-07-23T23:03:36.461Z,16.00
2018-07-23T23:06:04.343Z,15.60
2018-07-23T23:08:32.226Z,16.47
2018-07-23T23:11:00.121Z,15.60
2018-07-23T23:13:27.979Z,15.50
2018-07-23T23:15:55.845Z,13.73
2018-07-23T23:18:23.702Z,13.23
2018-07-23T23:20:51.546Z,13.27
2018-07-23T23:23:19.397Z,13.03
2018-07-23T23:25:47.267Z,12.80
2018-07-23T23:28:15.101Z,12.80
2018-07-23T23:30:42.949Z,12.93
2018-07-23T23:33:10.795Z,12.90
2018-07-23T23:35:38.646Z,11.23
2018-07-23T23:38:06.494Z,12.13
2018-07-23T23:40:34.382Z,12.17
2018-07-23T23:43:02.270Z,12.80
2018-07-23T23:45:30.097Z,11.57
2018-07-23T23:47:57.924Z,12.53
2018-07-23T23:50:25.757Z,12.70
2018-07-23T23:52:53.593Z,14.07
2018-07-23T23:55:21.417Z,13.80
2018-07-23T23:57:49.217Z,13.47
